createdAt,value
2018-06-09T00:00:51.307Z,124.90
2018-06-09T00:01:51.288Z,124.70
2018-06-09T00:02:51.303Z,129.70
2018-06-09T00:03:51.508Z,125.90
2018-06-09T00:04:51.295Z,129.90
2018-06-09T00:05:51.504Z,127.60
2018-06-09T00:06:51.312Z,126.80
2018-06-09T00:07:51.316Z,125.20
2018-06-09T00:08:51.522Z,124.50
2018-06-09T00:09:51.517Z,124.50
2018-06-09T00:10:51.335Z,125.70
2018-06-09T00:11:51.316Z,124.80
2018-06-09T00:12:51.535Z,129.60
2018-06-09T00:13:51.347Z,130.80
2018-06-09T00:14:51.336Z,136.10
2018-06-09T00:15:51.540Z,142.10
2018-06-09T00:16:51.333Z,148.90
2018-06-09T00:17:51.549Z,151.50
2018-06-09T00:18:51.339Z,152.70
2018-06-09T00:19:51.339Z,152.80
2018-06-09T00:20:51.354Z,155.20
2018-06-09T00:21:51.356Z,160.00
2018-06-09T00:22:51.348Z,161.40
2018-06-09T00:23:51.355Z,164.70
2018-06-09T00:24:51.559Z,163.50
2018-06-09T00:25:51.355Z,161.30
2018-06-09T00:26:51.361Z,163.10
2018-06-09T00:27:51.564Z,160.40
2018-06-09T00:28:51.374Z,158.60
2018-06-09T00:29:51.568Z,163.60
2018-06-09T00:30:51.368Z,161.80
2018-06-09T00:31:51.575Z,165.10
2018-06-09T00:32:51.388Z,164.20
2018-06-09T00:33:51.382Z,165.30
2018-06-09T00:34:51.382Z,159.80
2018-06-09T00:35:51.410Z,161.70
2018-06-09T00:36:51.400Z,160.80
2018-06-09T00:37:51.389Z,160.90
2018-06-09T00:38:51.599Z,163.40
2018-06-09T00:39:51.394Z,163.40
2018-06-09T00:40:51.396Z,162.20
2018-06-09T00:41:51.400Z,162.30
2018-06-09T00:42:51.418Z,166.70
2018-06-09T00:43:51.406Z,162.50
2018-06-09T00:44:51.408Z,167.00
2018-06-09T00:45:51.411Z,166.10
2018-06-09T00:46:51.616Z,164.80
2018-06-09T00:47:51.432Z,164.60
2018-06-09T00:48:51.419Z,160.40
2018-06-09T00:49:51.425Z,162.40
2018-06-09T00:50:51.441Z,161.70
2018-06-09T00:51:51.429Z,161.00
2018-06-09T00:52:51.432Z,162.00
2018-06-09T00:53:51.648Z,163.90
2018-06-09T00:54:51.439Z,162.30
2018-06-09T00:55:51.461Z,160.10
2018-06-09T00:56:51.441Z,163.20
2018-06-09T00:57:51.469Z,163.70
2018-06-09T00:58:51.650Z,161.20
2018-06-09T00:59:51.668Z,161.20
2018-06-09T01:00:51.463Z,157.30
2018-06-09T01:01:51.470Z,159.60
2018-06-09T01:02:51.473Z,154.00
2018-06-09T01:03:51.664Z,155.70
2018-06-09T01:04:51.465Z,153.50
2018-06-09T01:05:51.467Z,148.10
2018-06-09T01:06:51.473Z,155.50
2018-06-09T01:07:51.473Z,151.50
2018-06-09T01:08:51.693Z,153.50
2018-06-09T01:09:51.492Z,148.80
2018-06-09T01:10:51.479Z,151.40
2018-06-09T01:11:51.495Z,148.10
2018-06-09T01:12:51.495Z,150.70
2018-06-09T01:13:51.703Z,149.80
2018-06-09T01:14:51.501Z,148.50
2018-06-09T01:15:51.496Z,146.90
2018-06-09T01:16:51.497Z,145.40
2018-06-09T01:17:51.501Z,148.60
2018-06-09T01:18:51.520Z,147.90
2018-06-09T01:19:51.507Z,149.70
2018-06-09T01:20:51.510Z,148.40
2018-06-09T01:21:51.524Z,146.50
2018-06-09T01:22:51.716Z,151.00
2018-06-09T01:23:51.516Z,149.90
2018-06-09T01:24:51.522Z,146.80
2018-06-09T01:25:51.527Z,150.60
2018-06-09T01:26:51.537Z,149.30
2018-06-09T01:27:51.543Z,149.80
2018-06-09T01:28:51.734Z,148.20
2018-06-09T01:29:51.536Z,147.30
2018-06-09T01:30:51.547Z,144.80
2018-06-09T01:31:51.541Z,145.30
2018-06-09T01:32:51.541Z,146.60
2018-06-09T01:33:51.546Z,148.50
2018-06-09T01:34:51.560Z,147.50
2018-06-09T01:35:51.550Z,146.60
2018-06-09T01:36:51.553Z,145.20
2018-06-09T01:37:51.565Z,146.30
2018-06-09T01:38:51.573Z,144.50
2018-06-09T01:39:51.562Z,145.80
2018-06-09T01:40:51.563Z,146.30
2018-06-09T01:41:51.582Z,148.90
2018-06-09T01:42:51.578Z,147.60
2018-06-09T01:43:51.790Z,151.80
2018-06-09T01:44:51.574Z,150.70
2018-06-09T01:45:51.588Z,152.80
2018-06-09T01:46:51.583Z,149.50
2018-06-09T01:47:51.786Z,150.10
2018-06-09T01:48:51.587Z,156.10
2018-06-09T01:49:51.590Z,157.50
2018-06-09T01:50:51.795Z,158.40
2018-06-09T01:51:51.604Z,158.80
2018-06-09T01:52:51.607Z,158.10
2018-06-09T01:53:51.806Z,156.40
2018-06-09T01:54:51.602Z,155.20
2018-06-09T01:55:51.808Z,156.40
2018-06-09T01:56:51.619Z,156.20
2018-06-09T01:57:51.625Z,157.00
2018-06-09T01:58:51.634Z,153.70
2018-06-09T01:59:51.644Z,160.90
2018-06-09T02:00:51.623Z,164.50
2018-06-09T02:01:51.622Z,165.80
2018-06-09T02:02:51.840Z,167.80
2018-06-09T02:03:51.858Z,167.20
2018-06-09T02:04:51.630Z,164.50
2018-06-09T02:05:51.860Z,166.30
2018-06-09T02:06:51.841Z,163.50
2018-06-09T02:07:51.656Z,163.10
2018-06-09T02:08:51.655Z,168.90
2018-06-09T02:09:51.645Z,169.30
2018-06-09T02:10:51.665Z,170.10
2018-06-09T02:11:51.664Z,164.50
2018-06-09T02:12:51.859Z,163.30
2018-06-09T02:13:51.666Z,166.20
2018-06-09T02:14:51.904Z,165.20
2018-06-09T02:15:51.668Z,165.90
2018-06-09T02:16:51.870Z,167.20
2018-06-09T02:17:51.882Z,170.10
2018-06-09T02:18:51.670Z,171.80
2018-06-09T02:19:51.674Z,173.50
2018-06-09T02:20:51.688Z,166.70
2018-06-09T02:21:51.677Z,168.60
2018-06-09T02:22:51.707Z,164.90
2018-06-09T02:23:51.888Z,164.40
2018-06-09T02:24:51.887Z,166.70
2018-06-09T02:25:51.703Z,167.10
2018-06-09T02:26:51.894Z,164.30
2018-06-09T02:27:51.696Z,165.10
2018-06-09T02:28:51.916Z,162.30
2018-06-09T02:29:51.907Z,156.20
2018-06-09T02:30:51.721Z,154.60
2018-06-09T02:31:51.720Z,150.40
2018-06-09T02:32:51.710Z,147.80
2018-06-09T02:33:51.917Z,146.80
2018-06-09T02:34:51.715Z,143.60
2018-06-09T02:35:51.717Z,134.90
2018-06-09T02:36:51.721Z,135.70
2018-06-09T02:37:51.722Z,137.20
2018-06-09T02:38:51.726Z,138.90
2018-06-09T02:39:51.929Z,135.00
2018-06-09T02:40:51.732Z,136.30
2018-06-09T02:41:51.736Z,136.10
2018-06-09T02:42:51.740Z,134.70
2018-06-09T02:43:51.738Z,134.10
2018-06-09T02:44:51.745Z,129.90
2018-06-09T02:45:51.746Z,126.80
2018-06-09T02:46:51.748Z,130.10
2018-06-09T02:47:51.965Z,116.90
2018-06-09T02:48:51.767Z,116.70
2018-06-09T02:49:51.961Z,113.10
2018-06-09T02:50:51.770Z,109.80
2018-06-09T02:51:51.763Z,114.10
2018-06-09T02:52:51.766Z,113.10
2018-06-09T02:53:51.770Z,112.40
2018-06-09T02:54:51.774Z,110.80
2018-06-09T02:55:51.795Z,110.60
2018-06-09T02:56:51.777Z,108.00
2018-06-09T02:57:51.781Z,107.30
2018-06-09T02:58:51.795Z,104.80
2018-06-09T02:59:51.807Z,107.80
2018-06-09T03:00:51.800Z,109.40
2018-06-09T03:01:51.794Z,118.60
2018-06-09T03:02:51.811Z,114.90
2018-06-09T03:03:51.796Z,118.80
2018-06-09T03:04:52.013Z,118.20
2018-06-09T03:05:51.803Z,117.00
2018-06-09T03:06:51.822Z,115.80
2018-06-09T03:07:51.811Z,109.70
2018-06-09T03:08:52.027Z,111.00
2018-06-09T03:09:52.034Z,114.20
2018-06-09T03:10:51.833Z,114.50
2018-06-09T03:11:51.830Z,116.30
2018-06-09T03:12:51.828Z,113.90
2018-06-09T03:13:51.852Z,111.80
2018-06-09T03:14:51.861Z,102.10
2018-06-09T03:15:51.835Z,100.00
2018-06-09T03:16:52.039Z,106.20
2018-06-09T03:17:52.041Z,98.90
2018-06-09T03:18:51.865Z,98.50
2018-06-09T03:19:51.855Z,98.50
2018-06-09T03:20:51.858Z,98.70
2018-06-09T03:21:51.878Z,106.60
2018-06-09T03:22:51.852Z,105.80
2018-06-09T03:23:51.868Z,110.00
2018-06-09T03:24:51.873Z,109.60
2018-06-09T03:25:51.886Z,108.40
2018-06-09T03:26:51.880Z,105.70
2018-06-09T03:27:51.893Z,115.00
2018-06-09T03:28:51.879Z,121.40
2018-06-09T03:29:51.882Z,121.60
2018-06-09T03:30:52.089Z,121.20
2018-06-09T03:31:51.879Z,123.50
2018-06-09T03:32:51.896Z,128.40
2018-06-09T03:33:51.902Z,126.40
2018-06-09T03:34:51.886Z,127.40
2018-06-09T03:35:51.891Z,129.00
2018-06-09T03:36:51.894Z,130.40
2018-06-09T03:37:51.898Z,125.00
2018-06-09T03:38:51.901Z,119.90
2018-06-09T03:39:52.136Z,118.90
2018-06-09T03:40:51.919Z,115.90
2018-06-09T03:41:52.110Z,117.80
2018-06-09T03:42:52.116Z,116.90
2018-06-09T03:43:52.119Z,119.40
2018-06-09T03:44:51.916Z,119.10
2018-06-09T03:45:51.923Z,120.30
2018-06-09T03:46:51.936Z,121.70
2018-06-09T03:47:51.943Z,118.00
2018-06-09T03:48:51.981Z,116.10
2018-06-09T03:49:51.946Z,112.80
2018-06-09T03:50:51.937Z,114.10
2018-06-09T03:51:52.138Z,117.10
2018-06-09T03:52:52.144Z,120.20
2018-06-09T03:53:51.965Z,124.00
2018-06-09T03:54:51.957Z,128.00
2018-06-09T03:55:51.964Z,128.80
2018-06-09T03:56:51.961Z,131.00
2018-06-09T03:57:51.955Z,128.60
2018-06-09T03:58:51.968Z,131.70
2018-06-09T03:59:52.162Z,131.20
2018-06-09T04:00:51.963Z,130.70
2018-06-09T04:01:51.968Z,135.10
2018-06-09T04:02:51.970Z,140.40
2018-06-09T04:03:51.971Z,139.30
2018-06-09T04:04:52.188Z,141.80
2018-06-09T04:05:51.988Z,143.70
2018-06-09T04:06:52.190Z,145.70
2018-06-09T04:07:51.994Z,147.10
2018-06-09T04:08:51.998Z,148.60
2018-06-09T04:09:52.010Z,152.30
2018-06-09T04:10:52.201Z,151.70
2018-06-09T04:11:52.194Z,151.50
2018-06-09T04:12:52.197Z,151.20
2018-06-09T04:13:52.212Z,152.80
2018-06-09T04:14:52.000Z,154.90
2018-06-09T04:15:52.006Z,153.60
2018-06-09T04:16:52.017Z,156.50
2018-06-09T04:17:52.213Z,159.30
2018-06-09T04:18:52.011Z,161.70
2018-06-09T04:19:52.014Z,162.90
2018-06-09T04:20:52.221Z,162.60
2018-06-09T04:21:52.032Z,162.60
2018-06-09T04:22:52.024Z,163.10
2018-06-09T04:23:52.243Z,162.70
2018-06-09T04:24:52.039Z,165.20
2018-06-09T04:25:52.031Z,164.80
2018-06-09T04:26:52.247Z,168.70
2018-06-09T04:27:52.251Z,166.60
2018-06-09T04:28:52.038Z,168.00
2018-06-09T04:29:52.245Z,171.20
2018-06-09T04:30:52.056Z,169.90
2018-06-09T04:31:52.049Z,169.20
2018-06-09T04:32:52.265Z,170.20
2018-06-09T04:33:52.075Z,172.40
2018-06-09T04:34:52.073Z,170.50
2018-06-09T04:35:52.058Z,169.80
2018-06-09T04:36:52.075Z,168.90
2018-06-09T04:37:52.296Z,165.70
2018-06-09T04:38:52.281Z,165.90
2018-06-09T04:39:52.120Z,166.10
2018-06-09T04:40:52.075Z,163.60
2018-06-09T04:41:52.089Z,165.40
2018-06-09T04:42:52.103Z,160.80
2018-06-09T04:43:52.110Z,162.30
2018-06-09T04:44:52.086Z,160.00
2018-06-09T04:45:52.103Z,161.10
2018-06-09T04:46:52.096Z,159.00
2018-06-09T04:47:52.104Z,158.80
2018-06-09T04:48:52.323Z,158.40
2018-06-09T04:49:52.316Z,158.90
2018-06-09T04:50:52.313Z,157.50
2018-06-09T04:51:52.115Z,154.40
2018-06-09T04:52:52.110Z,150.40
2018-06-09T04:53:52.122Z,153.00
2018-06-09T04:54:52.123Z,150.50
2018-06-09T04:55:52.318Z,152.20
2018-06-09T04:56:52.323Z,147.80
2018-06-09T04:57:52.120Z,152.70
2018-06-09T04:58:52.325Z,148.90
2018-06-09T04:59:52.128Z,150.70
2018-06-09T05:00:52.140Z,150.40
2018-06-09T05:01:52.130Z,148.50
2018-06-09T05:02:52.133Z,147.90
2018-06-09T05:03:52.149Z,152.60
2018-06-09T05:04:52.151Z,148.80
2018-06-09T05:05:52.141Z,141.90
2018-06-09T05:06:52.154Z,138.90
2018-06-09T05:07:52.160Z,138.20
2018-06-09T05:08:52.164Z,138.30
2018-06-09T05:09:52.155Z,137.70
2018-06-09T05:10:52.159Z,139.60
2018-06-09T05:11:52.363Z,138.30
2018-06-09T05:12:52.177Z,136.70
2018-06-09T05:13:52.178Z,134.60
2018-06-09T05:14:52.181Z,137.10
2018-06-09T05:15:52.177Z,135.00
2018-06-09T05:16:52.174Z,134.80
2018-06-09T05:17:52.202Z,133.60
2018-06-09T05:18:52.193Z,132.90
2018-06-09T05:19:52.180Z,129.40
2018-06-09T05:20:52.405Z,131.30
2018-06-09T05:21:52.198Z,131.00
2018-06-09T05:22:52.220Z,129.20
2018-06-09T05:23:52.194Z,128.90
2018-06-09T05:24:52.193Z,129.50
2018-06-09T05:25:52.224Z,128.50
2018-06-09T05:26:52.219Z,128.30
2018-06-09T05:27:52.202Z,126.40
2018-06-09T05:28:52.209Z,126.40
2018-06-09T05:29:52.431Z,122.90
2018-06-09T05:30:52.430Z,121.70
2018-06-09T05:31:52.214Z,123.70
2018-06-09T05:32:52.431Z,126.80
2018-06-09T05:33:52.232Z,125.50
2018-06-09T05:34:52.223Z,127.20
2018-06-09T05:35:52.441Z,128.90
2018-06-09T05:36:52.228Z,131.10
2018-06-09T05:37:52.233Z,127.50
2018-06-09T05:38:52.246Z,129.60
2018-06-09T05:39:52.235Z,128.10
2018-06-09T05:40:52.253Z,128.00
2018-06-09T05:41:52.252Z,125.70
2018-06-09T05:42:52.247Z,129.10
2018-06-09T05:43:52.265Z,126.90
2018-06-09T05:44:52.249Z,125.60
2018-06-09T05:45:52.254Z,125.80
2018-06-09T05:46:52.277Z,125.40
2018-06-09T05:47:52.260Z,128.00
2018-06-09T05:48:52.261Z,126.00
2018-06-09T05:49:52.277Z,125.20
2018-06-09T05:50:52.277Z,126.70
2018-06-09T05:51:52.283Z,128.60
2018-06-09T05:52:52.274Z,125.90
2018-06-09T05:53:52.288Z,124.30
2018-06-09T05:54:52.288Z,124.00
2018-06-09T05:55:52.296Z,121.00
2018-06-09T05:56:52.281Z,120.40
2018-06-09T05:57:52.287Z,120.80
2018-06-09T05:58:52.288Z,121.50
2018-06-09T05:59:52.301Z,120.90
2018-06-09T06:00:52.522Z,122.80
2018-06-09T06:01:52.314Z,120.60
2018-06-09T06:02:52.503Z,120.40
2018-06-09T06:03:52.346Z,125.10
2018-06-09T06:04:52.321Z,124.30
2018-06-09T06:05:52.318Z,127.30
2018-06-09T06:06:52.542Z,124.90
2018-06-09T06:07:52.313Z,123.50
2018-06-09T06:08:52.547Z,120.70
2018-06-09T06:09:52.318Z,121.00
2018-06-09T06:10:52.330Z,123.30
2018-06-09T06:11:52.339Z,121.70
2018-06-09T06:12:52.346Z,118.10
2018-06-09T06:13:52.334Z,119.00
2018-06-09T06:14:52.365Z,113.40
2018-06-09T06:15:52.539Z,113.70
2018-06-09T06:16:52.338Z,110.50
2018-06-09T06:17:52.558Z,109.60
2018-06-09T06:18:52.422Z,109.10
2018-06-09T06:19:52.361Z,107.30
2018-06-09T06:20:52.351Z,103.50
2018-06-09T06:21:52.383Z,106.40
2018-06-09T06:22:52.555Z,106.50
2018-06-09T06:23:52.368Z,105.20
2018-06-09T06:24:52.370Z,107.50
2018-06-09T06:25:52.365Z,105.70
2018-06-09T06:26:52.392Z,107.70
2018-06-09T06:27:52.370Z,106.10
2018-06-09T06:28:52.386Z,104.20
2018-06-09T06:29:52.399Z,103.90
2018-06-09T06:30:52.392Z,102.50
2018-06-09T06:31:52.404Z,103.00
2018-06-09T06:32:52.588Z,98.20
2018-06-09T06:33:52.402Z,99.90
2018-06-09T06:34:52.392Z,100.40
2018-06-09T06:35:52.405Z,103.30
2018-06-09T06:36:52.601Z,101.70
2018-06-09T06:37:52.412Z,98.10
2018-06-09T06:38:52.402Z,99.30
2018-06-09T06:39:52.409Z,100.90
2018-06-09T06:40:52.410Z,99.40
2018-06-09T06:41:52.422Z,98.60
2018-06-09T06:42:52.416Z,97.20
2018-06-09T06:43:52.417Z,97.10
2018-06-09T06:44:52.431Z,98.40
2018-06-09T06:45:52.629Z,97.30
2018-06-09T06:46:52.630Z,96.70
2018-06-09T06:47:52.435Z,96.70
2018-06-09T06:48:52.436Z,98.40
2018-06-09T06:49:52.438Z,96.70
2018-06-09T06:50:52.439Z,99.90
2018-06-09T06:51:52.455Z,105.20
2018-06-09T06:52:52.652Z,110.30
2018-06-09T06:53:52.462Z,107.80
2018-06-09T06:54:52.453Z,100.60
2018-06-09T06:55:52.459Z,99.80
2018-06-09T06:56:52.461Z,104.20
2018-06-09T06:57:52.465Z,111.20
2018-06-09T06:58:52.465Z,112.90
2018-06-09T06:59:52.470Z,103.40
2018-06-09T07:00:52.697Z,95.00
2018-06-09T07:01:52.476Z,92.10
2018-06-09T07:02:52.491Z,90.10
2018-06-09T07:03:52.485Z,86.20
2018-06-09T07:04:52.496Z,91.90
2018-06-09T07:05:52.500Z,86.70
2018-06-09T07:06:52.503Z,79.80
2018-06-09T07:07:52.526Z,77.90
2018-06-09T07:08:52.499Z,77.40
2018-06-09T07:09:52.522Z,77.30
2018-06-09T07:10:52.506Z,70.80
2018-06-09T07:11:52.523Z,70.50
2018-06-09T07:12:52.518Z,70.60
2018-06-09T07:13:52.535Z,71.30
2018-06-09T07:14:52.532Z,69.90
2018-06-09T07:15:52.539Z,68.00
2018-06-09T07:16:52.554Z,70.60
2018-06-09T07:17:52.532Z,72.60
2018-06-09T07:18:52.558Z,71.70
2018-06-09T07:19:52.541Z,74.00
2018-06-09T07:20:52.567Z,74.40
2018-06-09T07:21:52.759Z,72.90
2018-06-09T07:22:52.547Z,72.60
2018-06-09T07:23:52.552Z,69.90
2018-06-09T07:24:52.557Z,69.60
2018-06-09T07:25:52.565Z,71.70
2018-06-09T07:26:52.561Z,72.00
2018-06-09T07:27:52.566Z,68.90
2018-06-09T07:28:52.575Z,69.70
2018-06-09T07:29:52.777Z,65.20
2018-06-09T07:30:52.604Z,68.00
2018-06-09T07:31:52.579Z,69.60
2018-06-09T07:32:52.582Z,68.80
2018-06-09T07:33:52.590Z,66.00
2018-06-09T07:34:52.595Z,66.30
2018-06-09T07:35:52.604Z,65.60
2018-06-09T07:36:52.597Z,66.40
2018-06-09T07:37:52.614Z,70.30
2018-06-09T07:38:52.616Z,72.10
2018-06-09T07:39:52.631Z,73.10
2018-06-09T07:40:52.626Z,73.60
2018-06-09T07:41:52.617Z,72.30
2018-06-09T07:42:52.632Z,70.50
2018-06-09T07:43:52.635Z,69.90
2018-06-09T07:44:52.627Z,69.60
2018-06-09T07:45:52.851Z,68.70
2018-06-09T07:46:52.636Z,69.20
2018-06-09T07:47:52.671Z,66.70
2018-06-09T07:48:52.654Z,65.70
2018-06-09T07:49:52.661Z,62.00
2018-06-09T07:50:52.648Z,59.40
2018-06-09T07:51:52.653Z,60.20
2018-06-09T07:52:52.657Z,60.00
2018-06-09T07:53:52.679Z,56.70
2018-06-09T07:54:52.675Z,53.50
2018-06-09T07:55:52.680Z,52.30
2018-06-09T07:56:52.681Z,50.10
2018-06-09T07:57:52.689Z,52.10
2018-06-09T07:58:52.679Z,51.80
2018-06-09T07:59:52.693Z,51.30
2018-06-09T08:00:52.686Z,52.00
2018-06-09T08:01:52.692Z,53.10
2018-06-09T08:02:52.705Z,50.50
2018-06-09T08:03:52.706Z,51.00
2018-06-09T08:04:52.703Z,51.20
2018-06-09T08:05:52.706Z,49.40
2018-06-09T08:06:52.759Z,49.10
2018-06-09T08:07:52.723Z,48.90
2018-06-09T08:08:52.716Z,48.90
2018-06-09T08:09:52.729Z,49.40
2018-06-09T08:10:52.926Z,50.60
2018-06-09T08:11:52.727Z,50.10
2018-06-09T08:12:52.945Z,49.20
2018-06-09T08:13:52.738Z,48.90
2018-06-09T08:14:52.735Z,48.90
2018-06-09T08:15:52.754Z,46.00
2018-06-09T08:16:52.761Z,45.80
2018-06-09T08:17:52.763Z,46.50
2018-06-09T08:18:52.759Z,47.20
2018-06-09T08:19:52.755Z,48.30
2018-06-09T08:20:52.763Z,47.00
2018-06-09T08:21:52.779Z,46.40
2018-06-09T08:22:52.770Z,46.00
2018-06-09T08:23:52.773Z,46.90
2018-06-09T08:24:52.776Z,45.40
2018-06-09T08:25:52.781Z,45.40
2018-06-09T08:26:52.797Z,43.20
2018-06-09T08:27:52.788Z,44.90
2018-06-09T08:28:52.815Z,43.90
2018-06-09T08:29:52.808Z,42.50
2018-06-09T08:30:52.797Z,42.60
2018-06-09T08:31:52.804Z,43.70
2018-06-09T08:32:52.817Z,42.40
2018-06-09T08:33:52.813Z,43.80
2018-06-09T08:34:53.018Z,42.50
2018-06-09T08:35:52.817Z,42.60
2018-06-09T08:36:52.839Z,41.10
2018-06-09T08:37:52.826Z,41.00
2018-06-09T08:38:52.850Z,41.70
2018-06-09T08:39:52.864Z,41.20
2018-06-09T08:40:52.839Z,40.20
2018-06-09T08:41:53.056Z,39.30
2018-06-09T08:42:52.868Z,38.50
2018-06-09T08:43:52.845Z,38.80
2018-06-09T08:44:52.869Z,39.20
2018-06-09T08:45:52.887Z,37.70
2018-06-09T08:46:53.086Z,37.50
2018-06-09T08:47:52.893Z,38.60
2018-06-09T08:48:52.866Z,38.10
2018-06-09T08:49:52.872Z,37.90
2018-06-09T08:50:52.897Z,37.10
2018-06-09T08:51:52.895Z,37.70
2018-06-09T08:52:52.897Z,37.00
2018-06-09T08:53:53.092Z,35.60
2018-06-09T08:54:52.888Z,37.20
2018-06-09T08:55:52.902Z,35.90
2018-06-09T08:56:52.937Z,35.30
2018-06-09T08:57:52.900Z,36.80
2018-06-09T08:58:53.112Z,35.20
2018-06-09T08:59:52.908Z,36.20
2018-06-09T09:00:52.928Z,35.90
2018-06-09T09:01:52.929Z,35.90
2018-06-09T09:02:52.930Z,36.50
2018-06-09T09:03:52.933Z,35.90
2018-06-09T09:04:52.927Z,35.50
2018-06-09T09:05:52.933Z,36.10
2018-06-09T09:06:53.162Z,35.40
2018-06-09T09:07:53.153Z,34.60
2018-06-09T09:08:52.940Z,35.30
2018-06-09T09:09:52.963Z,33.70
2018-06-09T09:10:52.950Z,34.30
2018-06-09T09:11:52.951Z,34.30
2018-06-09T09:12:52.967Z,35.00
2018-06-09T09:13:52.978Z,33.10
2018-06-09T09:14:52.965Z,32.30
2018-06-09T09:15:52.969Z,32.80
2018-06-09T09:16:53.187Z,33.00
2018-06-09T09:17:52.976Z,33.90
2018-06-09T09:18:52.996Z,34.80
2018-06-09T09:19:52.983Z,33.10
2018-06-09T09:20:52.990Z,33.00
2018-06-09T09:21:53.007Z,34.80
2018-06-09T09:22:53.008Z,33.70
2018-06-09T09:23:52.997Z,33.30
2018-06-09T09:24:53.027Z,32.60
2018-06-09T09:25:53.019Z,35.40
2018-06-09T09:26:53.019Z,34.30
2018-06-09T09:27:53.039Z,35.00
2018-06-09T09:28:53.020Z,32.70
2018-06-09T09:29:53.224Z,31.90
2018-06-09T09:30:53.023Z,32.30
2018-06-09T09:31:53.060Z,32.90
2018-06-09T09:32:53.032Z,31.70
2018-06-09T09:33:53.063Z,33.10
2018-06-09T09:34:53.041Z,33.50
2018-06-09T09:35:53.042Z,33.30
2018-06-09T09:36:53.057Z,33.60
2018-06-09T09:37:53.051Z,35.00
2018-06-09T09:38:53.055Z,34.60
2018-06-09T09:39:53.062Z,35.50
2018-06-09T09:40:53.062Z,35.50
2018-06-09T09:41:53.068Z,35.30
2018-06-09T09:42:53.270Z,33.40
2018-06-09T09:43:53.071Z,30.60
2018-06-09T09:44:53.087Z,32.50
2018-06-09T09:45:53.293Z,33.00
2018-06-09T09:46:53.092Z,33.70
2018-06-09T09:47:53.087Z,32.80
2018-06-09T09:48:53.092Z,30.60
2018-06-09T09:49:53.097Z,30.30
2018-06-09T09:50:53.110Z,30.40
2018-06-09T09:51:53.115Z,34.30
2018-06-09T09:52:53.104Z,35.60
2018-06-09T09:53:53.121Z,35.60
2018-06-09T09:54:53.130Z,36.20
2018-06-09T09:55:53.163Z,35.50
2018-06-09T09:56:53.123Z,33.90
2018-06-09T09:57:53.350Z,34.60
2018-06-09T09:58:53.137Z,34.80
2018-06-09T09:59:53.130Z,33.10
2018-06-09T10:00:53.138Z,29.00
2018-06-09T10:01:53.139Z,28.80
2018-06-09T10:02:53.358Z,33.10
2018-06-09T10:03:53.147Z,31.60
2018-06-09T10:04:53.150Z,30.60
2018-06-09T10:05:53.163Z,29.10
2018-06-09T10:06:53.155Z,29.90
2018-06-09T10:07:53.362Z,31.20
2018-06-09T10:08:53.166Z,30.30
2018-06-09T10:09:53.179Z,30.80
2018-06-09T10:10:53.173Z,31.10
2018-06-09T10:11:53.174Z,30.40
2018-06-09T10:12:53.183Z,32.90
2018-06-09T10:13:53.193Z,33.40
2018-06-09T10:14:53.186Z,32.50
2018-06-09T10:15:53.401Z,32.50
2018-06-09T10:16:53.197Z,31.90
2018-06-09T10:17:53.196Z,31.30
2018-06-09T10:18:53.200Z,30.90
2018-06-09T10:19:53.207Z,32.40
2018-06-09T10:20:53.209Z,30.60
2018-06-09T10:21:53.225Z,30.60
2018-06-09T10:22:53.219Z,31.00
2018-06-09T10:23:53.218Z,29.00
2018-06-09T10:24:53.234Z,31.80
2018-06-09T10:25:53.429Z,31.50
2018-06-09T10:26:53.242Z,31.60
2018-06-09T10:27:53.237Z,31.80
2018-06-09T10:28:53.442Z,31.70
2018-06-09T10:29:53.245Z,33.40
2018-06-09T10:30:53.243Z,33.00
2018-06-09T10:31:53.250Z,33.30
2018-06-09T10:32:53.334Z,33.20
2018-06-09T10:33:53.258Z,32.40
2018-06-09T10:34:53.263Z,32.80
2018-06-09T10:35:53.264Z,33.50
2018-06-09T10:36:53.279Z,33.10
2018-06-09T10:37:53.295Z,32.90
2018-06-09T10:38:53.275Z,33.20
2018-06-09T10:39:53.279Z,32.80
2018-06-09T10:40:53.283Z,33.30
2018-06-09T10:41:53.288Z,34.40
2018-06-09T10:42:53.293Z,34.50
2018-06-09T10:43:53.298Z,35.90
2018-06-09T10:44:53.301Z,32.70
2018-06-09T10:45:53.304Z,32.70
2018-06-09T10:46:53.305Z,33.60
2018-06-09T10:47:53.317Z,32.90
2018-06-09T10:48:53.313Z,33.50
2018-06-09T10:49:53.330Z,33.70
2018-06-09T10:50:53.555Z,33.10
2018-06-09T10:51:53.527Z,33.30
2018-06-09T10:52:53.332Z,33.60
2018-06-09T10:53:53.344Z,33.10
2018-06-09T10:54:53.336Z,33.90
2018-06-09T10:55:53.361Z,34.20
2018-06-09T10:56:53.345Z,33.10
2018-06-09T10:57:53.349Z,33.50
2018-06-09T10:58:53.351Z,33.30
2018-06-09T10:59:53.387Z,32.80
2018-06-09T11:00:53.365Z,32.70
2018-06-09T11:01:53.381Z,33.40
2018-06-09T11:02:53.368Z,32.90
2018-06-09T11:03:53.388Z,33.60
2018-06-09T11:04:53.379Z,33.60
2018-06-09T11:05:53.381Z,32.60
2018-06-09T11:06:53.397Z,33.80
2018-06-09T11:07:53.403Z,33.30
2018-06-09T11:08:53.390Z,33.80
2018-06-09T11:09:53.412Z,34.70
2018-06-09T11:10:53.427Z,34.10
2018-06-09T11:11:53.405Z,34.80
2018-06-09T11:12:53.417Z,34.90
2018-06-09T11:13:53.436Z,34.50
2018-06-09T11:14:53.427Z,34.10
2018-06-09T11:15:53.444Z,35.00
2018-06-09T11:16:53.425Z,34.30
2018-06-09T11:17:53.431Z,35.50
2018-06-09T11:18:53.450Z,35.10
2018-06-09T11:19:53.454Z,35.00
2018-06-09T11:20:53.449Z,34.90
2018-06-09T11:21:53.454Z,33.90
2018-06-09T11:22:53.466Z,35.30
2018-06-09T11:23:53.667Z,35.80
2018-06-09T11:24:53.452Z,36.40
2018-06-09T11:25:53.457Z,34.70
2018-06-09T11:26:53.462Z,35.10
2018-06-09T11:27:53.475Z,35.30
2018-06-09T11:28:53.469Z,34.20
2018-06-09T11:29:53.484Z,35.50
2018-06-09T11:30:53.488Z,35.00
2018-06-09T11:31:53.485Z,35.40
2018-06-09T11:32:53.698Z,36.10
2018-06-09T11:33:53.495Z,35.10
2018-06-09T11:34:53.493Z,34.70
2018-06-09T11:35:53.510Z,35.00
2018-06-09T11:36:53.704Z,35.00
2018-06-09T11:37:53.516Z,33.90
2018-06-09T11:38:53.511Z,35.60
2018-06-09T11:39:53.517Z,35.80
2018-06-09T11:40:53.718Z,35.40
2018-06-09T11:41:53.725Z,36.10
2018-06-09T11:42:53.525Z,34.70
2018-06-09T11:43:53.531Z,35.20
2018-06-09T11:44:53.544Z,35.40
2018-06-09T11:45:53.537Z,36.20
2018-06-09T11:46:53.547Z,35.30
2018-06-09T11:47:53.544Z,36.40
2018-06-09T11:48:53.548Z,36.00
2018-06-09T11:49:53.758Z,36.10
2018-06-09T11:50:53.558Z,36.10
2018-06-09T11:51:53.575Z,34.80
2018-06-09T11:52:53.780Z,35.50
2018-06-09T11:53:53.571Z,35.30
2018-06-09T11:54:53.582Z,33.70
2018-06-09T11:55:53.577Z,34.30
2018-06-09T11:56:53.580Z,35.20
2018-06-09T11:57:53.599Z,34.40
2018-06-09T11:58:53.608Z,34.50
2018-06-09T11:59:53.593Z,35.10
2018-06-09T12:00:53.596Z,34.90
2018-06-09T12:01:53.803Z,36.70
2018-06-09T12:02:53.636Z,36.10
2018-06-09T12:03:53.618Z,35.30
2018-06-09T12:04:53.614Z,35.20
2018-06-09T12:05:53.627Z,34.60
2018-06-09T12:06:53.633Z,34.00
2018-06-09T12:07:53.635Z,34.30
2018-06-09T12:08:53.628Z,33.50
2018-06-09T12:09:53.631Z,33.50
2018-06-09T12:10:53.634Z,34.30
2018-06-09T12:11:53.640Z,35.20
2018-06-09T12:12:53.645Z,33.60
2018-06-09T12:13:53.866Z,33.10
2018-06-09T12:14:53.663Z,33.80
2018-06-09T12:15:53.857Z,31.70
2018-06-09T12:16:53.864Z,33.90
2018-06-09T12:17:53.666Z,33.60
2018-06-09T12:18:53.682Z,32.70
2018-06-09T12:19:53.698Z,33.10
2018-06-09T12:20:53.896Z,31.90
2018-06-09T12:21:53.907Z,33.40
2018-06-09T12:22:53.697Z,33.50
2018-06-09T12:23:53.912Z,33.00
2018-06-09T12:24:53.722Z,32.40
2018-06-09T12:25:53.727Z,31.20
2018-06-09T12:26:53.699Z,31.80
2018-06-09T12:27:53.922Z,30.60
2018-06-09T12:28:53.712Z,31.90
2018-06-09T12:29:53.721Z,30.30
2018-06-09T12:30:53.934Z,31.50
2018-06-09T12:31:53.750Z,30.10
2018-06-09T12:32:53.956Z,29.70
2018-06-09T12:33:53.732Z,31.30
2018-06-09T12:34:53.747Z,30.90
2018-06-09T12:35:53.741Z,30.10
2018-06-09T12:36:53.956Z,29.70
2018-06-09T12:37:53.762Z,30.40
2018-06-09T12:38:53.750Z,29.30
2018-06-09T12:39:53.754Z,29.20